sensor_id;sensor_type;location;lat;lon;timestamp;P1;durP1;ratioP1;P2;durP2;ratioP2
20042;SDS011;10182;52.896;6.496;2024-03-22T00:04:10;40.43;;;29.87;;
20042;SDS011;10182;52.896;6.496;2024-03-22T00:09:12;42.40;;;31.37;;
20042;SDS011;10182;52.896;6.496;2024-03-22T00:14:14;40.27;;;29.83;;
20042;SDS011;10182;52.896;6.496;2024-03-22T00:19:17;46.57;;;33.10;;
20042;SDS011;10182;52.896;6.496;2024-03-22T00:24:18;42.30;;;31.43;;
20042;SDS011;10182;52.896;6.496;2024-03-22T00:29:20;46.37;;;34.67;;
20042;SDS011;10182;52.896;6.496;2024-03-22T00:34:23;44.90;;;34.10;;
20042;SDS011;10182;52.896;6.496;2024-03-22T00:39:25;52.63;;;35.73;;
20042;SDS011;10182;52.896;6.496;2024-03-22T00:44:26;52.37;;;37.10;;
20042;SDS011;10182;52.896;6.496;2024-03-22T00:49:29;49.53;;;37.33;;
20042;SDS011;10182;52.896;6.496;2024-03-22T00:54:31;57.97;;;39.60;;
20042;SDS011;10182;52.896;6.496;2024-03-22T00:59:33;53.73;;;38.63;;
20042;SDS011;10182;52.896;6.496;2024-03-22T01:04:36;57.57;;;39.97;;
20042;SDS011;10182;52.896;6.496;2024-03-22T01:09:37;53.10;;;39.37;;
20042;SDS011;10182;52.896;6.496;2024-03-22T01:14:39;49.20;;;36.70;;
20042;SDS011;10182;52.896;6.496;2024-03-22T01:19:42;52.33;;;37.40;;
20042;SDS011;10182;52.896;6.496;2024-03-22T01:24:44;58.90;;;42.23;;
20042;SDS011;10182;52.896;6.496;2024-03-22T01:29:46;59.00;;;42.10;;
20042;SDS011;10182;52.896;6.496;2024-03-22T01:34:49;63.00;;;42.83;;
20042;SDS011;10182;52.896;6.496;2024-03-22T01:39:50;60.87;;;43.80;;
20042;SDS011;10182;52.896;6.496;2024-03-22T01:44:52;65.97;;;45.37;;
20042;SDS011;10182;52.896;6.496;2024-03-22T01:49:55;67.53;;;45.70;;
20042;SDS011;10182;52.896;6.496;2024-03-22T01:54:59;67.80;;;47.40;;
20042;SDS011;10182;52.896;6.496;2024-03-22T02:00:00;68.43;;;47.13;;
20042;SDS011;10182;52.896;6.496;2024-03-22T02:05:12;68.77;;;47.03;;
20042;SDS011;10182;52.896;6.496;2024-03-22T02:10:15;67.97;;;47.73;;
20042;SDS011;10182;52.896;6.496;2024-03-22T02:15:19;72.73;;;48.07;;
20042;SDS011;10182;52.896;6.496;2024-03-22T02:20:22;68.50;;;48.10;;
20042;SDS011;10182;52.896;6.496;2024-03-22T02:31:47;73.73;;;50.30;;
20042;SDS011;10182;52.896;6.496;2024-03-22T02:36:49;71.07;;;49.20;;
20042;SDS011;10182;52.896;6.496;2024-03-22T02:41:51;71.83;;;49.83;;
20042;SDS011;10182;52.896;6.496;2024-03-22T02:46:54;69.50;;;47.93;;
20042;SDS011;10182;52.896;6.496;2024-03-22T02:51:55;73.43;;;51.07;;
20042;SDS011;10182;52.896;6.496;2024-03-22T02:56:57;75.73;;;51.53;;
20042;SDS011;10182;52.896;6.496;2024-03-22T03:02:00;75.63;;;50.73;;
20042;SDS011;10182;52.896;6.496;2024-03-22T03:07:01;73.83;;;49.97;;
20042;SDS011;10182;52.896;6.496;2024-03-22T03:12:04;78.63;;;51.43;;
20042;SDS011;10182;52.896;6.496;2024-03-22T03:17:07;77.57;;;51.53;;
20042;SDS011;10182;52.896;6.496;2024-03-22T03:22:09;76.23;;;50.93;;
20042;SDS011;10182;52.896;6.496;2024-03-22T03:27:10;83.07;;;51.83;;
20042;SDS011;10182;52.896;6.496;2024-03-22T03:32:13;74.37;;;50.60;;
20042;SDS011;10182;52.896;6.496;2024-03-22T03:37:15;84.70;;;52.83;;
20042;SDS011;10182;52.896;6.496;2024-03-22T03:42:17;78.03;;;51.47;;
20042;SDS011;10182;52.896;6.496;2024-03-22T03:47:20;78.50;;;52.07;;
20042;SDS011;10182;52.896;6.496;2024-03-22T03:52:21;78.77;;;53.17;;
20042;SDS011;10182;52.896;6.496;2024-03-22T03:57:23;83.87;;;53.23;;
20042;SDS011;10182;52.896;6.496;2024-03-22T04:02:26;79.30;;;52.57;;
20042;SDS011;10182;52.896;6.496;2024-03-22T04:07:27;83.10;;;53.27;;
20042;SDS011;10182;52.896;6.496;2024-03-22T04:12:29;81.03;;;52.20;;
20042;SDS011;10182;52.896;6.496;2024-03-22T04:17:32;85.27;;;52.60;;
20042;SDS011;10182;52.896;6.496;2024-03-22T04:22:34;79.80;;;51.47;;
20042;SDS011;10182;52.896;6.496;2024-03-22T04:27:36;82.80;;;51.77;;
20042;SDS011;10182;52.896;6.496;2024-03-22T04:32:39;84.10;;;51.33;;
20042;SDS011;10182;52.896;6.496;2024-03-22T04:37:40;80.87;;;49.87;;
20042;SDS011;10182;52.896;6.496;2024-03-22T04:42:42;74.93;;;47.53;;
20042;SDS011;10182;52.896;6.496;2024-03-22T04:47:45;75.83;;;48.17;;
20042;SDS011;10182;52.896;6.496;2024-03-22T04:52:46;76.60;;;48.33;;
20042;SDS011;10182;52.896;6.496;2024-03-22T04:57:48;83.70;;;49.40;;
20042;SDS011;10182;52.896;6.496;2024-03-22T05:02:51;71.87;;;45.03;;
20042;SDS011;10182;52.896;6.496;2024-03-22T05:07:53;77.47;;;47.23;;
20042;SDS011;10182;52.896;6.496;2024-03-22T05:12:55;71.57;;;44.40;;
20042;SDS011;10182;52.896;6.496;2024-03-22T05:17:58;66.63;;;42.67;;
20042;SDS011;10182;52.896;6.496;2024-03-22T05:23:00;66.17;;;40.40;;
20042;SDS011;10182;52.896;6.496;2024-03-22T05:28:02;67.67;;;43.27;;
20042;SDS011;10182;52.896;6.496;2024-03-22T05:33:05;72.93;;;42.87;;
20042;SDS011;10182;52.896;6.496;2024-03-22T05:38:06;69.30;;;43.03;;
20042;SDS011;10182;52.896;6.496;2024-03-22T05:43:08;64.93;;;42.90;;
20042;SDS011;10182;52.896;6.496;2024-03-22T05:48:11;67.43;;;41.97;;
20042;SDS011;10182;52.896;6.496;2024-03-22T05:53:13;62.27;;;40.23;;
20042;SDS011;10182;52.896;6.496;2024-03-22T05:58:14;62.83;;;39.83;;
20042;SDS011;10182;52.896;6.496;2024-03-22T06:03:17;57.17;;;36.70;;
20042;SDS011;10182;52.896;6.496;2024-03-22T06:08:19;58.33;;;36.93;;
20042;SDS011;10182;52.896;6.496;2024-03-22T06:13:21;63.33;;;39.97;;
20042;SDS011;10182;52.896;6.496;2024-03-22T06:18:24;63.57;;;37.93;;
20042;SDS011;10182;52.896;6.496;2024-03-22T06:23:27;70.20;;;38.33;;
20042;SDS011;10182;52.896;6.496;2024-03-22T06:28:29;61.80;;;39.27;;
20042;SDS011;10182;52.896;6.496;2024-03-22T06:33:32;59.47;;;37.03;;
20042;SDS011;10182;52.896;6.496;2024-03-22T06:38:33;57.73;;;36.37;;
20042;SDS011;10182;52.896;6.496;2024-03-22T06:43:35;52.40;;;35.80;;
20042;SDS011;10182;52.896;6.496;2024-03-22T06:48:38;57.27;;;35.73;;
20042;SDS011;10182;52.896;6.496;2024-03-22T06:53:39;52.20;;;33.73;;
20042;SDS011;10182;52.896;6.496;2024-03-22T06:58:41;53.10;;;32.93;;
20042;SDS011;10182;52.896;6.496;2024-03-22T07:03:44;55.93;;;32.07;;
20042;SDS011;10182;52.896;6.496;2024-03-22T07:08:46;52.60;;;32.60;;
20042;SDS011;10182;52.896;6.496;2024-03-22T07:13:47;51.13;;;30.77;;
20042;SDS011;10182;52.896;6.496;2024-03-22T07:18:50;48.60;;;29.90;;
20042;SDS011;10182;52.896;6.496;2024-03-22T07:23:52;46.87;;;28.43;;
20042;SDS011;10182;52.896;6.496;2024-03-22T07:28:54;50.03;;;27.60;;
20042;SDS011;10182;52.896;6.496;2024-03-22T07:33:57;47.50;;;28.97;;
20042;SDS011;10182;52.896;6.496;2024-03-22T07:38:58;40.33;;;26.03;;
20042;SDS011;10182;52.896;6.496;2024-03-22T07:44:00;49.57;;;26.03;;
20042;SDS011;10182;52.896;6.496;2024-03-22T07:49:04;36.30;;;23.13;;
20042;SDS011;10182;52.896;6.496;2024-03-22T07:54:05;37.83;;;22.77;;
20042;SDS011;10182;52.896;6.496;2024-03-22T07:59:07;31.10;;;21.90;;
20042;SDS011;10182;52.896;6.496;2024-03-22T08:04:10;36.17;;;22.07;;
20042;SDS011;10182;52.896;6.496;2024-03-22T08:09:12;38.97;;;21.63;;
20042;SDS011;10182;52.896;6.496;2024-03-22T08:14:13;37.03;;;22.20;;
20042;SDS011;10182;52.896;6.496;2024-03-22T08:19:16;44.30;;;23.43;;
20042;SDS011;10182;52.896;6.496;2024-03-22T08:24:18;40.30;;;21.93;;
20042;SDS011;10182;52.896;6.496;2024-03-22T08:29:22;45.87;;;23.40;;
20042;SDS011;10182;52.896;6.496;2024-03-22T08:34:25;42.03;;;23.27;;
20042;SDS011;10182;52.896;6.496;2024-03-22T08:39:27;38.33;;;23.30;;
20042;SDS011;10182;52.896;6.496;2024-03-22T08:44:28;41.07;;;23.17;;
20042;SDS011;10182;52.896;6.496;2024-03-22T08:49:32;45.67;;;24.37;;
20042;SDS011;10182;52.896;6.496;2024-03-22T08:54:33;41.23;;;25.77;;
20042;SDS011;10182;52.896;6.496;2024-03-22T08:59:35;44.70;;;24.23;;
20042;SDS011;10182;52.896;6.496;2024-03-22T09:04:39;43.87;;;24.77;;
20042;SDS011;10182;52.896;6.496;2024-03-22T09:09:41;42.37;;;24.83;;
20042;SDS011;10182;52.896;6.496;2024-03-22T09:14:42;39.87;;;24.27;;
20042;SDS011;10182;52.896;6.496;2024-03-22T09:19:45;41.07;;;25.10;;
20042;SDS011;10182;52.896;6.496;2024-03-22T09:24:47;40.93;;;22.77;;
20042;SDS011;10182;52.896;6.496;2024-03-22T09:29:50;34.63;;;21.97;;
20042;SDS011;10182;52.896;6.496;2024-03-22T09:34:54;35.03;;;22.00;;
20042;SDS011;10182;52.896;6.496;2024-03-22T09:39:56;33.40;;;21.47;;
20042;SDS011;10182;52.896;6.496;2024-03-22T09:44:57;31.93;;;19.10;;
20042;SDS011;10182;52.896;6.496;2024-03-22T09:50:00;34.37;;;20.67;;
20042;SDS011;10182;52.896;6.496;2024-03-22T09:55:04;27.60;;;18.50;;
20042;SDS011;10182;52.896;6.496;2024-03-22T10:00:07;24.33;;;17.00;;
20042;SDS011;10182;52.896;6.496;2024-03-22T10:05:11;26.23;;;17.50;;
20042;SDS011;10182;52.896;6.496;2024-03-22T10:10:12;24.40;;;15.63;;
20042;SDS011;10182;52.896;6.496;2024-03-22T10:15:15;21.60;;;15.63;;
20042;SDS011;10182;52.896;6.496;2024-03-22T10:20:19;18.90;;;14.00;;
20042;SDS011;10182;52.896;6.496;2024-03-22T10:25:21;21.90;;;14.97;;
20042;SDS011;10182;52.896;6.496;2024-03-22T10:30:24;17.97;;;11.70;;
20042;SDS011;10182;52.896;6.496;2024-03-22T10:35:27;15.53;;;11.63;;
20042;SDS011;10182;52.896;6.496;2024-03-22T10:40:30;12.83;;;10.50;;
20042;SDS011;10182;52.896;6.496;2024-03-22T10:45:32;13.93;;;10.00;;
20042;SDS011;10182;52.896;6.496;2024-03-22T10:50:38;12.70;;;9.10;;
20042;SDS011;10182;52.896;6.496;2024-03-22T10:55:42;11.53;;;9.03;;
20042;SDS011;10182;52.896;6.496;2024-03-22T11:00:44;12.57;;;9.07;;
20042;SDS011;10182;52.896;6.496;2024-03-22T11:05:48;12.63;;;8.60;;
20042;SDS011;10182;52.896;6.496;2024-03-22T11:10:51;13.83;;;8.50;;
20042;SDS011;10182;52.896;6.496;2024-03-22T11:15:53;9.57;;;8.03;;
20042;SDS011;10182;52.896;6.496;2024-03-22T11:20:56;8.70;;;6.33;;
20042;SDS011;10182;52.896;6.496;2024-03-22T11:25:58;8.77;;;6.97;;
20042;SDS011;10182;52.896;6.496;2024-03-22T11:31:00;8.27;;;6.57;;
20042;SDS011;10182;52.896;6.496;2024-03-22T11:36:03;9.77;;;7.23;;
20042;SDS011;10182;52.896;6.496;2024-03-22T11:41:05;9.00;;;7.20;;
20042;SDS011;10182;52.896;6.496;2024-03-22T11:46:08;10.67;;;7.13;;
20042;SDS011;10182;52.896;6.496;2024-03-22T11:51:11;8.90;;;6.70;;
20042;SDS011;10182;52.896;6.496;2024-03-22T11:56:13;7.63;;;6.23;;
20042;SDS011;10182;52.896;6.496;2024-03-22T12:01:15;6.80;;;6.20;;
20042;SDS011;10182;52.896;6.496;2024-03-22T12:06:18;6.93;;;6.23;;
20042;SDS011;10182;52.896;6.496;2024-03-22T12:11:21;8.23;;;5.63;;
20042;SDS011;10182;52.896;6.496;2024-03-22T12:16:23;5.83;;;3.80;;
20042;SDS011;10182;52.896;6.496;2024-03-22T12:21:26;5.90;;;3.97;;
20042;SDS011;10182;52.896;6.496;2024-03-22T12:26:27;4.53;;;3.30;;
20042;SDS011;10182;52.896;6.496;2024-03-22T12:31:29;8.60;;;3.60;;
20042;SDS011;10182;52.896;6.496;2024-03-22T12:36:32;9.37;;;3.40;;
20042;SDS011;10182;52.896;6.496;2024-03-22T12:41:34;7.87;;;3.50;;
20042;SDS011;10182;52.896;6.496;2024-03-22T12:46:36;7.33;;;4.20;;
20042;SDS011;10182;52.896;6.496;2024-03-22T12:51:39;8.80;;;4.30;;
20042;SDS011;10182;52.896;6.496;2024-03-22T12:56:41;8.23;;;3.27;;
20042;SDS011;10182;52.896;6.496;2024-03-22T13:01:43;6.07;;;3.43;;
20042;SDS011;10182;52.896;6.496;2024-03-22T13:06:46;10.27;;;4.20;;
20042;SDS011;10182;52.896;6.496;2024-03-22T13:11:48;8.47;;;4.23;;
20042;SDS011;10182;52.896;6.496;2024-03-22T13:16:49;8.73;;;4.90;;
20042;SDS011;10182;52.896;6.496;2024-03-22T13:21:52;10.87;;;5.50;;
20042;SDS011;10182;52.896;6.496;2024-03-22T13:26:54;11.60;;;5.10;;
20042;SDS011;10182;52.896;6.496;2024-03-22T13:31:55;9.77;;;5.13;;
20042;SDS011;10182;52.896;6.496;2024-03-22T13:36:58;9.87;;;5.73;;
20042;SDS011;10182;52.896;6.496;2024-03-22T13:42:00;12.40;;;6.43;;
20042;SDS011;10182;52.896;6.496;2024-03-22T13:47:02;12.53;;;5.80;;
20042;SDS011;10182;52.896;6.496;2024-03-22T13:52:06;14.47;;;6.97;;
20042;SDS011;10182;52.896;6.496;2024-03-22T13:57:08;14.20;;;7.30;;
20042;SDS011;10182;52.896;6.496;2024-03-22T14:02:09;14.90;;;6.90;;
20042;SDS011;10182;52.896;6.496;2024-03-22T14:07:12;16.43;;;7.57;;
20042;SDS011;10182;52.896;6.496;2024-03-22T14:12:14;16.83;;;7.67;;
20042;SDS011;10182;52.896;6.496;2024-03-22T14:17:16;16.77;;;8.10;;
20042;SDS011;10182;52.896;6.496;2024-03-22T14:22:19;15.20;;;7.37;;
20042;SDS011;10182;52.896;6.496;2024-03-22T14:27:21;16.10;;;7.77;;
20042;SDS011;10182;52.896;6.496;2024-03-22T14:32:23;13.90;;;7.83;;
20042;SDS011;10182;52.896;6.496;2024-03-22T14:37:26;19.50;;;7.90;;
20042;SDS011;10182;52.896;6.496;2024-03-22T14:42:27;17.63;;;8.23;;
20042;SDS011;10182;52.896;6.496;2024-03-22T14:47:30;23.13;;;6.63;;
20042;SDS011;10182;52.896;6.496;2024-03-22T14:52:33;19.40;;;6.07;;
20042;SDS011;10182;52.896;6.496;2024-03-22T14:57:35;17.47;;;5.10;;
20042;SDS011;10182;52.896;6.496;2024-03-22T15:02:36;13.73;;;5.00;;
20042;SDS011;10182;52.896;6.496;2024-03-22T15:07:39;20.27;;;5.10;;
20042;SDS011;10182;52.896;6.496;2024-03-22T15:12:41;12.20;;;4.77;;
20042;SDS011;10182;52.896;6.496;2024-03-22T15:17:43;12.27;;;4.43;;
20042;SDS011;10182;52.896;6.496;2024-03-22T15:22:46;13.43;;;4.70;;
20042;SDS011;10182;52.896;6.496;2024-03-22T15:27:48;13.63;;;3.43;;
20042;SDS011;10182;52.896;6.496;2024-03-22T15:32:50;15.80;;;3.40;;
20042;SDS011;10182;52.896;6.496;2024-03-22T15:37:54;9.53;;;3.03;;
20042;SDS011;10182;52.896;6.496;2024-03-22T15:42:56;15.87;;;4.17;;
20042;SDS011;10182;52.896;6.496;2024-03-22T15:47:57;18.07;;;3.67;;
20042;SDS011;10182;52.896;6.496;2024-03-22T15:53:00;17.33;;;4.53;;
20042;SDS011;10182;52.896;6.496;2024-03-22T15:58:02;15.67;;;3.97;;
20042;SDS011;10182;52.896;6.496;2024-03-22T16:03:05;11.13;;;3.83;;
20042;SDS011;10182;52.896;6.496;2024-03-22T16:08:08;19.97;;;4.17;;
20042;SDS011;10182;52.896;6.496;2024-03-22T16:13:10;16.83;;;4.70;;
20042;SDS011;10182;52.896;6.496;2024-03-22T16:18:12;18.50;;;5.30;;
20042;SDS011;10182;52.896;6.496;2024-03-22T16:23:15;19.93;;;6.17;;
20042;SDS011;10182;52.896;6.496;2024-03-22T16:28:17;18.93;;;5.10;;
20042;SDS011;10182;52.896;6.496;2024-03-22T16:33:18;23.73;;;6.27;;
20042;SDS011;10182;52.896;6.496;2024-03-22T16:38:23;20.83;;;6.73;;
20042;SDS011;10182;52.896;6.496;2024-03-22T16:43:25;27.03;;;7.63;;
20042;SDS011;10182;52.896;6.496;2024-03-22T16:48:26;24.03;;;6.47;;
20042;SDS011;10182;52.896;6.496;2024-03-22T16:53:29;24.07;;;5.90;;
20042;SDS011;10182;52.896;6.496;2024-03-22T16:58:31;23.30;;;5.97;;
20042;SDS011;10182;52.896;6.496;2024-03-22T17:03:33;22.43;;;5.60;;
20042;SDS011;10182;52.896;6.496;2024-03-22T17:08:37;23.13;;;5.97;;
20042;SDS011;10182;52.896;6.496;2024-03-22T17:13:39;22.97;;;6.27;;
20042;SDS011;10182;52.896;6.496;2024-03-22T17:18:41;20.40;;;5.37;;
20042;SDS011;10182;52.896;6.496;2024-03-22T17:23:44;21.97;;;5.37;;
20042;SDS011;10182;52.896;6.496;2024-03-22T17:28:45;23.00;;;5.47;;
20042;SDS011;10182;52.896;6.496;2024-03-22T17:33:48;26.83;;;5.53;;
20042;SDS011;10182;52.896;6.496;2024-03-22T17:38:51;29.10;;;5.53;;
20042;SDS011;10182;52.896;6.496;2024-03-22T17:43:53;24.30;;;5.40;;
20042;SDS011;10182;52.896;6.496;2024-03-22T17:48:55;28.70;;;6.07;;
20042;SDS011;10182;52.896;6.496;2024-03-22T17:53:58;26.00;;;6.23;;
20042;SDS011;10182;52.896;6.496;2024-03-22T17:58:59;21.87;;;5.27;;
20042;SDS011;10182;52.896;6.496;2024-03-22T18:04:01;26.83;;;6.27;;
20042;SDS011;10182;52.896;6.496;2024-03-22T18:09:04;19.43;;;4.60;;
20042;SDS011;10182;52.896;6.496;2024-03-22T18:14:10;18.70;;;4.90;;
20042;SDS011;10182;52.896;6.496;2024-03-22T18:19:12;24.70;;;5.07;;
20042;SDS011;10182;52.896;6.496;2024-03-22T18:24:15;19.30;;;5.03;;
20042;SDS011;10182;52.896;6.496;2024-03-22T18:29:19;22.97;;;6.47;;
20042;SDS011;10182;52.896;6.496;2024-03-22T18:34:21;20.40;;;5.20;;
20042;SDS011;10182;52.896;6.496;2024-03-22T18:39:24;26.57;;;5.70;;
20042;SDS011;10182;52.896;6.496;2024-03-22T18:44:26;26.43;;;6.33;;
20042;SDS011;10182;52.896;6.496;2024-03-22T18:49:28;19.97;;;6.63;;
20042;SDS011;10182;52.896;6.496;2024-03-22T18:54:33;25.40;;;6.30;;
20042;SDS011;10182;52.896;6.496;2024-03-22T18:59:35;21.37;;;5.47;;
20042;SDS011;10182;52.896;6.496;2024-03-22T19:04:36;23.90;;;6.63;;
20042;SDS011;10182;52.896;6.496;2024-03-22T19:09:39;24.07;;;7.47;;
20042;SDS011;10182;52.896;6.496;2024-03-22T19:14:42;30.97;;;10.07;;
20042;SDS011;10182;52.896;6.496;2024-03-22T19:19:47;41.50;;;15.40;;
20042;SDS011;10182;52.896;6.496;2024-03-22T19:24:50;32.67;;;9.10;;
20042;SDS011;10182;52.896;6.496;2024-03-22T19:29:52;21.93;;;5.17;;
20042;SDS011;10182;52.896;6.496;2024-03-22T19:34:54;23.00;;;5.50;;
20042;SDS011;10182;52.896;6.496;2024-03-22T19:39:57;28.83;;;5.97;;
20042;SDS011;10182;52.896;6.496;2024-03-22T19:44:59;24.00;;;6.13;;
20042;SDS011;10182;52.896;6.496;2024-03-22T19:50:00;28.47;;;6.37;;
20042;SDS011;10182;52.896;6.496;2024-03-22T19:55:04;35.07;;;6.70;;
20042;SDS011;10182;52.896;6.496;2024-03-22T20:00:07;23.80;;;6.13;;
20042;SDS011;10182;52.896;6.496;2024-03-22T20:05:09;34.40;;;7.40;;
20042;SDS011;10182;52.896;6.496;2024-03-22T20:10:15;30.97;;;9.90;;
20042;SDS011;10182;52.896;6.496;2024-03-22T20:15:16;35.33;;;13.43;;
20042;SDS011;10182;52.896;6.496;2024-03-22T20:20:21;21.37;;;8.77;;
20042;SDS011;10182;52.896;6.496;2024-03-22T20:25:26;33.03;;;11.00;;
20042;SDS011;10182;52.896;6.496;2024-03-22T20:30:29;39.30;;;13.10;;
20042;SDS011;10182;52.896;6.496;2024-03-22T20:35:31;33.70;;;12.40;;
